sensor_id;sensor_type;location;lat;lon;timestamp;pressure;altitude;pressure_sealevel;temperature;humidity
75036;BME280;64247;51.540;5.854;2022-12-18T00:00:23;102506.50;;;-7.41;100.00
75036;BME280;64247;51.540;5.854;2022-12-18T00:02:25;102510.97;;;-7.42;100.00
75036;BME280;64247;51.540;5.854;2022-12-18T00:04:27;102509.13;;;-7.41;100.00
75036;BME280;64247;51.540;5.854;2022-12-18T00:06:29;102509.50;;;-7.44;100.00
75036;BME280;64247;51.540;5.854;2022-12-18T00:08:30;102511.50;;;-7.47;100.00
75036;BME280;64247;51.540;5.854;2022-12-18T00:10:33;102509.50;;;-7.44;100.00
75036;BME280;64247;51.540;5.854;2022-12-18T00:12:34;102501.94;;;-7.48;100.00
75036;BME280;64247;51.540;5.854;2022-12-18T00:14:35;102507.03;;;-7.46;100.00
75036;BME280;64247;51.540;5.854;2022-12-18T00:16:35;102507.03;;;-7.46;100.00
75036;BME280;64247;51.540;5.854;2022-12-18T00:18:37;102509.66;;;-7.46;100.00
75036;BME280;64247;51.540;5.854;2022-12-18T00:20:39;102505.03;;;-7.44;100.00
75036;BME280;64247;51.540;5.854;2022-12-18T00:22:40;102499.66;;;-7.51;100.00
75036;BME280;64247;51.540;5.854;2022-12-18T00:24:42;102492.66;;;-7.58;100.00
75036;BME280;64247;51.540;5.854;2022-12-18T00:26:42;102508.53;;;-7.67;100.00
75036;BME280;64247;51.540;5.854;2022-12-18T00:28:44;102505.78;;;-7.73;100.00
75036;BME280;64247;51.540;5.854;2022-12-18T00:30:46;102503.13;;;-7.73;100.00
75036;BME280;64247;51.540;5.854;2022-12-18T00:32:47;102494.69;;;-7.69;100.00
75036;BME280;64247;51.540;5.854;2022-12-18T00:34:47;102489.94;;;-7.73;100.00
75036;BME280;64247;51.540;5.854;2022-12-18T00:36:49;102495.06;;;-7.72;100.00
75036;BME280;64247;51.540;5.854;2022-12-18T00:38:50;102501.34;;;-7.73;100.00
75036;BME280;64247;51.540;5.854;2022-12-18T00:40:52;102495.41;;;-7.75;100.00
75036;BME280;64247;51.540;5.854;2022-12-18T00:42:52;102494.94;;;-7.79;100.00
75036;BME280;64247;51.540;5.854;2022-12-18T00:44:56;102495.47;;;-7.83;100.00
75036;BME280;64247;51.540;5.854;2022-12-18T00:46:58;102493.81;;;-7.84;100.00
75036;BME280;64247;51.540;5.854;2022-12-18T00:48:59;102499.09;;;-7.84;100.00
75036;BME280;64247;51.540;5.854;2022-12-18T00:51:00;102502.09;;;-7.87;100.00
75036;BME280;64247;51.540;5.854;2022-12-18T00:53:01;102494.72;;;-7.92;100.00
75036;BME280;64247;51.540;5.854;2022-12-18T00:55:02;102486.53;;;-7.97;100.00
75036;BME280;64247;51.540;5.854;2022-12-18T00:57:03;102487.34;;;-7.97;100.00
75036;BME280;64247;51.540;5.854;2022-12-18T00:59:05;102480.88;;;-7.94;100.00
75036;BME280;64247;51.540;5.854;2022-12-18T01:01:06;102502.63;;;-7.92;100.00
75036;BME280;64247;51.540;5.854;2022-12-18T01:03:09;102498.34;;;-7.93;100.00
75036;BME280;64247;51.540;5.854;2022-12-18T01:05:14;102496.66;;;-7.86;100.00
75036;BME280;64247;51.540;5.854;2022-12-18T01:07:16;102489.88;;;-7.80;100.00
75036;BME280;64247;51.540;5.854;2022-12-18T01:09:17;102482.41;;;-7.76;100.00
75036;BME280;64247;51.540;5.854;2022-12-18T01:11:20;102486.16;;;-7.71;100.00
75036;BME280;64247;51.540;5.854;2022-12-18T01:13:22;102492.38;;;-7.64;100.00
75036;BME280;64247;51.540;5.854;2022-12-18T01:15:24;102489.66;;;-7.55;100.00
75036;BME280;64247;51.540;5.854;2022-12-18T01:17:25;102490.41;;;-7.47;100.00
75036;BME280;64247;51.540;5.854;2022-12-18T01:19:27;102490.78;;;-7.35;100.00
75036;BME280;64247;51.540;5.854;2022-12-18T01:21:28;102493.34;;;-7.26;100.00
75036;BME280;64247;51.540;5.854;2022-12-18T01:23:29;102495.00;;;-7.25;100.00
75036;BME280;64247;51.540;5.854;2022-12-18T01:25:30;102501.06;;;-7.25;100.00
75036;BME280;64247;51.540;5.854;2022-12-18T01:27:33;102501.91;;;-7.24;100.00
75036;BME280;64247;51.540;5.854;2022-12-18T01:29:34;102508.81;;;-7.23;100.00
75036;BME280;64247;51.540;5.854;2022-12-18T01:31:35;102511.44;;;-7.23;100.00
75036;BME280;64247;51.540;5.854;2022-12-18T01:33:36;102507.81;;;-7.22;100.00
75036;BME280;64247;51.540;5.854;2022-12-18T01:35:41;102508.19;;;-7.25;100.00
75036;BME280;64247;51.540;5.854;2022-12-18T01:37:43;102512.00;;;-7.28;100.00
75036;BME280;64247;51.540;5.854;2022-12-18T01:39:44;102511.34;;;-7.30;100.00
75036;BME280;64247;51.540;5.854;2022-12-18T01:41:46;102497.53;;;-7.32;100.00
75036;BME280;64247;51.540;5.854;2022-12-18T01:47:07;102484.31;;;-7.32;100.00
75036;BME280;64247;51.540;5.854;2022-12-18T01:49:08;102490.41;;;-7.32;100.00
75036;BME280;64247;51.540;5.854;2022-12-18T01:51:10;102489.59;;;-7.32;100.00
75036;BME280;64247;51.540;5.854;2022-12-18T01:53:17;102484.50;;;-7.34;100.00
75036;BME280;64247;51.540;5.854;2022-12-18T01:55:23;102486.84;;;-7.39;100.00
75036;BME280;64247;51.540;5.854;2022-12-18T01:58:00;102491.19;;;-7.46;100.00
75036;BME280;64247;51.540;5.854;2022-12-18T02:00:07;102493.75;;;-7.53;100.00
75036;BME280;64247;51.540;5.854;2022-12-18T02:02:15;102496.56;;;-7.54;100.00
75036;BME280;64247;51.540;5.854;2022-12-18T02:04:23;102485.66;;;-7.51;100.00
75036;BME280;64247;51.540;5.854;2022-12-18T02:06:33;102481.75;;;-7.55;100.00
75036;BME280;64247;51.540;5.854;2022-12-18T02:09:34;102485.91;;;-7.61;100.00
75036;BME280;64247;51.540;5.854;2022-12-18T02:11:49;102480.97;;;-7.64;100.00
75036;BME280;64247;51.540;5.854;2022-12-18T02:14:31;102486.25;;;-7.64;100.00
75036;BME280;64247;51.540;5.854;2022-12-18T02:17:24;102489.34;;;-7.60;100.00
75036;BME280;64247;51.540;5.854;2022-12-18T02:20:49;102487.38;;;-7.58;100.00
75036;BME280;64247;51.540;5.854;2022-12-18T02:28:15;102482.81;;;-7.65;100.00
75036;BME280;64247;51.540;5.854;2022-12-18T02:30:20;102480.97;;;-7.64;100.00
75036;BME280;64247;51.540;5.854;2022-12-18T02:32:28;102488.75;;;-7.63;100.00
75036;BME280;64247;51.540;5.854;2022-12-18T02:34:37;102485.91;;;-7.61;100.00
75036;BME280;64247;51.540;5.854;2022-12-18T02:36:42;102485.91;;;-7.61;100.00
75036;BME280;64247;51.540;5.854;2022-12-18T02:38:46;102476.53;;;-7.64;100.00
75036;BME280;64247;51.540;5.854;2022-12-18T02:40:50;102486.16;;;-7.71;100.00
75036;BME280;64247;51.540;5.854;2022-12-18T02:42:54;102476.69;;;-7.80;100.00
75036;BME280;64247;51.540;5.854;2022-12-18T02:44:55;102483.47;;;-7.86;100.00
75036;BME280;64247;51.540;5.854;2022-12-18T02:46:59;102477.25;;;-7.93;100.00
75036;BME280;64247;51.540;5.854;2022-12-18T03:04:13;102453.66;;;-8.09;100.00
75036;BME280;64247;51.540;5.854;2022-12-18T03:06:32;102454.03;;;-8.13;100.00
75036;BME280;64247;51.540;5.854;2022-12-18T03:08:41;102449.91;;;-8.15;100.00
75036;BME280;64247;51.540;5.854;2022-12-18T03:10:47;102450.94;;;-8.16;100.00
75036;BME280;64247;51.540;5.854;2022-12-18T03:13:20;102451.72;;;-8.16;100.00
75036;BME280;64247;51.540;5.854;2022-12-18T03:15:26;102455.34;;;-8.17;100.00
75036;BME280;64247;51.540;5.854;2022-12-18T03:17:45;102457.84;;;-8.23;100.00
75036;BME280;64247;51.540;5.854;2022-12-18T03:19:56;102457.19;;;-8.17;100.00
75036;BME280;64247;51.540;5.854;2022-12-18T03:22:07;102460.81;;;-8.18;100.00
75036;BME280;64247;51.540;5.854;2022-12-18T03:24:18;102458.50;;;-8.21;100.00
75036;BME280;64247;51.540;5.854;2022-12-18T03:26:24;102455.88;;;-8.21;100.00
75036;BME280;64247;51.540;5.854;2022-12-18T03:28:35;102458.03;;;-8.25;100.00
75036;BME280;64247;51.540;5.854;2022-12-18T03:30:43;102459.03;;;-8.26;100.00
75036;BME280;64247;51.540;5.854;2022-12-18T03:32:53;102463.50;;;-8.27;100.00
75036;BME280;64247;51.540;5.854;2022-12-18T03:35:04;102455.13;;;-8.30;100.00
75036;BME280;64247;51.540;5.854;2022-12-18T03:37:10;102458.75;;;-8.31;100.00
75036;BME280;64247;51.540;5.854;2022-12-18T03:39:11;102465.00;;;-8.32;100.00
75036;BME280;64247;51.540;5.854;2022-12-18T03:41:33;102456.44;;;-8.34;100.00
75036;BME280;64247;51.540;5.854;2022-12-18T03:44:28;102451.53;;;-8.37;100.00
75036;BME280;64247;51.540;5.854;2022-12-18T03:49:12;102452.88;;;-8.42;100.00
75036;BME280;64247;51.540;5.854;2022-12-18T03:51:36;102443.06;;;-8.48;100.00
75036;BME280;64247;51.540;5.854;2022-12-18T03:54:14;102437.34;;;-8.51;100.00
75036;BME280;64247;51.540;5.854;2022-12-18T03:56:29;102444.34;;;-8.44;100.00
75036;BME280;64247;51.540;5.854;2022-12-18T03:58:35;102438.72;;;-8.40;100.00
75036;BME280;64247;51.540;5.854;2022-12-18T04:01:02;102427.00;;;-8.38;100.00
75036;BME280;64247;51.540;5.854;2022-12-18T04:03:07;102425.69;;;-8.34;100.00
75036;BME280;64247;51.540;5.854;2022-12-18T04:05:16;102414.78;;;-8.31;100.00
75036;BME280;64247;51.540;5.854;2022-12-18T04:07:20;102412.59;;;-8.27;100.00
75036;BME280;64247;51.540;5.854;2022-12-18T04:09:22;102414.56;;;-8.21;100.00
75036;BME280;64247;51.540;5.854;2022-12-18T04:11:25;102409.75;;;-8.17;100.00
75036;BME280;64247;51.540;5.854;2022-12-18T04:13:29;102407.94;;;-8.17;100.00
75036;BME280;64247;51.540;5.854;2022-12-18T04:15:36;102415.97;;;-8.10;100.00
75036;BME280;64247;51.540;5.854;2022-12-18T04:17:47;102412.59;;;-8.04;100.00
75036;BME280;64247;51.540;5.854;2022-12-18T04:19:52;102408.44;;;-7.98;100.00
75036;BME280;64247;51.540;5.854;2022-12-18T04:21:53;102411.56;;;-7.95;100.00
75036;BME280;64247;51.540;5.854;2022-12-18T04:23:54;102402.47;;;-7.92;100.00
75036;BME280;64247;51.540;5.854;2022-12-18T04:25:56;102410.00;;;-7.89;100.00
75036;BME280;64247;51.540;5.854;2022-12-18T04:28:13;102398.13;;;-7.85;100.00
75036;BME280;64247;51.540;5.854;2022-12-18T04:30:14;102394.94;;;-7.80;100.00
75036;BME280;64247;51.540;5.854;2022-12-18T04:32:15;102396.22;;;-7.76;100.00
75036;BME280;64247;51.540;5.854;2022-12-18T04:34:18;102389.59;;;-7.72;100.00
75036;BME280;64247;51.540;5.854;2022-12-18T04:36:23;102396.50;;;-7.71;100.00
75036;BME280;64247;51.540;5.854;2022-12-18T04:38:24;102396.97;;;-7.67;100.00
75036;BME280;64247;51.540;5.854;2022-12-18T04:40:35;102393.97;;;-7.64;100.00
75036;BME280;64247;51.540;5.854;2022-12-18T04:42:41;102380.03;;;-7.58;100.00
75036;BME280;64247;51.540;5.854;2022-12-18T04:44:42;102386.63;;;-7.54;100.00
75036;BME280;64247;51.540;5.854;2022-12-18T04:46:43;102376.72;;;-7.52;100.00
75036;BME280;64247;51.540;5.854;2022-12-18T04:48:45;102384.44;;;-7.50;100.00
75036;BME280;64247;51.540;5.854;2022-12-18T04:50:47;102392.44;;;-7.43;100.00
75036;BME280;64247;51.540;5.854;2022-12-18T04:52:48;102394.63;;;-7.47;100.00
75036;BME280;64247;51.540;5.854;2022-12-18T04:54:49;102390.16;;;-7.47;100.00
75036;BME280;64247;51.540;5.854;2022-12-18T04:56:50;102394.63;;;-7.47;100.00
75036;BME280;64247;51.540;5.854;2022-12-18T04:58:50;102397.06;;;-7.45;100.00
75036;BME280;64247;51.540;5.854;2022-12-18T05:00:51;102398.06;;;-7.47;100.00
75036;BME280;64247;51.540;5.854;2022-12-18T05:02:52;102402.53;;;-7.47;100.00
75036;BME280;64247;51.540;5.854;2022-12-18T05:04:53;102403.34;;;-7.47;100.00
75036;BME280;64247;51.540;5.854;2022-12-18T05:06:54;102406.00;;;-7.47;100.00
75036;BME280;64247;51.540;5.854;2022-12-18T05:08:55;102411.06;;;-7.45;100.00
75036;BME280;64247;51.540;5.854;2022-12-18T05:11:03;102419.81;;;-7.44;100.00
75036;BME280;64247;51.540;5.854;2022-12-18T05:13:25;102420.63;;;-7.44;100.00
75036;BME280;64247;51.540;5.854;2022-12-18T05:15:30;102433.00;;;-7.44;100.00
75036;BME280;64247;51.540;5.854;2022-12-18T05:17:32;102434.19;;;-7.47;100.00
75036;BME280;64247;51.540;5.854;2022-12-18T05:19:32;102439.81;;;-7.50;100.00
75036;BME280;64247;51.540;5.854;2022-12-18T05:21:33;102443.47;;;-7.51;100.00
75036;BME280;64247;51.540;5.854;2022-12-18T05:23:35;102449.53;;;-7.51;100.00
75036;BME280;64247;51.540;5.854;2022-12-18T05:25:36;102454.00;;;-7.51;100.00
75036;BME280;64247;51.540;5.854;2022-12-18T05:27:37;102453.19;;;-7.52;100.00
75036;BME280;64247;51.540;5.854;2022-12-18T05:29:37;102461.91;;;-7.51;100.00
75036;BME280;64247;51.540;5.854;2022-12-18T05:31:38;102447.72;;;-7.50;100.00
75036;BME280;64247;51.540;5.854;2022-12-18T05:33:40;102458.09;;;-7.49;100.00
75036;BME280;64247;51.540;5.854;2022-12-18T05:35:40;102454.47;;;-7.48;100.00
75036;BME280;64247;51.540;5.854;2022-12-18T05:37:41;102453.66;;;-7.48;100.00
75036;BME280;64247;51.540;5.854;2022-12-18T05:39:43;102443.91;;;-7.48;100.00
75036;BME280;64247;51.540;5.854;2022-12-18T05:41:44;102448.38;;;-7.48;100.00
75036;BME280;64247;51.540;5.854;2022-12-18T05:43:47;102439.63;;;-7.49;100.00
75036;BME280;64247;51.540;5.854;2022-12-18T05:45:48;102428.09;;;-7.48;100.00
75036;BME280;64247;51.540;5.854;2022-12-18T05:47:50;102426.28;;;-7.47;100.00
75036;BME280;64247;51.540;5.854;2022-12-18T05:49:51;102420.44;;;-7.42;100.00
75036;BME280;64247;51.540;5.854;2022-12-18T05:51:51;102421.91;;;-7.40;100.00
75036;BME280;64247;51.540;5.854;2022-12-18T05:53:52;102420.72;;;-7.37;100.00
75036;BME280;64247;51.540;5.854;2022-12-18T05:55:53;102420.34;;;-7.34;100.00
75036;BME280;64247;51.540;5.854;2022-12-18T05:57:54;102414.53;;;-7.29;100.00
75036;BME280;64247;51.540;5.854;2022-12-18T05:59:55;102405.28;;;-7.25;100.00
75036;BME280;64247;51.540;5.854;2022-12-18T06:01:56;102409.63;;;-7.18;100.00
75036;BME280;64247;51.540;5.854;2022-12-18T06:03:56;102412.53;;;-7.12;100.00
75036;BME280;64247;51.540;5.854;2022-12-18T06:05:57;102411.97;;;-7.08;100.00
75036;BME280;64247;51.540;5.854;2022-12-18T06:07:58;102407.97;;;-7.04;100.00
75036;BME280;64247;51.540;5.854;2022-12-18T06:09:59;102404.78;;;-6.99;100.00
75036;BME280;64247;51.540;5.854;2022-12-18T06:11:59;102399.13;;;-6.96;100.00
75036;BME280;64247;51.540;5.854;2022-12-18T06:14:01;102380.47;;;-6.94;100.00
75036;BME280;64247;51.540;5.854;2022-12-18T06:16:05;102380.94;;;-6.91;100.00
75036;BME280;64247;51.540;5.854;2022-12-18T06:18:06;102389.47;;;-6.89;100.00
75036;BME280;64247;51.540;5.854;2022-12-18T06:20:07;102381.53;;;-6.89;100.00
75036;BME280;64247;51.540;5.854;2022-12-18T06:22:08;102387.84;;;-6.90;100.00
75036;BME280;64247;51.540;5.854;2022-12-18T06:24:09;102377.53;;;-6.85;100.00
75036;BME280;64247;51.540;5.854;2022-12-18T06:26:11;102390.34;;;-6.81;100.00
75036;BME280;64247;51.540;5.854;2022-12-18T06:28:13;102380.06;;;-6.76;100.00
75036;BME280;64247;51.540;5.854;2022-12-18T06:30:14;102383.34;;;-6.74;100.00
75036;BME280;64247;51.540;5.854;2022-12-18T06:32:15;102375.69;;;-6.69;100.00
75036;BME280;64247;51.540;5.854;2022-12-18T06:34:17;102385.03;;;-6.66;100.00
75036;BME280;64247;51.540;5.854;2022-12-18T06:36:17;102385.25;;;-6.68;100.00
75036;BME280;64247;51.540;5.854;2022-12-18T06:38:18;102384.59;;;-6.70;100.00
75036;BME280;64247;51.540;5.854;2022-12-18T06:40:19;102375.03;;;-6.71;100.00
75036;BME280;64247;51.540;5.854;2022-12-18T06:42:21;102373.22;;;-6.71;100.00
75036;BME280;64247;51.540;5.854;2022-12-18T06:44:23;102376.69;;;-6.70;100.00
75036;BME280;64247;51.540;5.854;2022-12-18T06:46:24;102373.22;;;-6.71;100.00
75036;BME280;64247;51.540;5.854;2022-12-18T06:48:24;102365.13;;;-6.69;100.00
75036;BME280;64247;51.540;5.854;2022-12-18T06:50:25;102372.47;;;-6.64;100.00
75036;BME280;64247;51.540;5.854;2022-12-18T06:52:26;102371.47;;;-6.63;100.00
75036;BME280;64247;51.540;5.854;2022-12-18T06:54:27;102372.91;;;-6.61;100.00
75036;BME280;64247;51.540;5.854;2022-12-18T06:56:28;102371.91;;;-6.60;100.00
75036;BME280;64247;51.540;5.854;2022-12-18T06:58:29;102372.09;;;-6.61;100.00
75036;BME280;64247;51.540;5.854;2022-12-18T07:00:30;102373.72;;;-6.60;100.00
75036;BME280;64247;51.540;5.854;2022-12-18T07:02:31;102368.72;;;-6.55;100.00
75036;BME280;64247;51.540;5.854;2022-12-18T07:04:32;102378.09;;;-6.53;100.00
75036;BME280;64247;51.540;5.854;2022-12-18T07:06:33;102376.06;;;-6.50;100.00
75036;BME280;64247;51.540;5.854;2022-12-18T07:08:34;102374.44;;;-6.52;100.00
75036;BME280;64247;51.540;5.854;2022-12-18T07:10:41;102365.31;;;-6.49;100.00
75036;BME280;64247;51.540;5.854;2022-12-18T07:12:43;102368.31;;;-6.52;100.00
75036;BME280;64247;51.540;5.854;2022-12-18T07:14:44;102346.81;;;-6.49;100.00
75036;BME280;64247;51.540;5.854;2022-12-18T07:16:44;102366.97;;;-6.48;100.00
75036;BME280;64247;51.540;5.854;2022-12-18T07:18:46;102361.84;;;-6.49;100.00
75036;BME280;64247;51.540;5.854;2022-12-18T07:20:47;102364.31;;;-6.48;100.00
75036;BME280;64247;51.540;5.854;2022-12-18T07:22:48;102355.34;;;-6.47;100.00
75036;BME280;64247;51.540;5.854;2022-12-18T07:24:48;102353.34;;;-6.45;99.83
75036;BME280;64247;51.540;5.854;2022-12-18T07:26:49;102354.19;;;-6.44;99.88
75036;BME280;64247;51.540;5.854;2022-12-18T07:28:50;102348.28;;;-6.46;99.94
75036;BME280;64247;51.540;5.854;2022-12-18T07:30:54;102343.97;;;-6.47;99.84
75036;BME280;64247;51.540;5.854;2022-12-18T07:32:55;102344.34;;;-6.50;100.00
75036;BME280;64247;51.540;5.854;2022-12-18T07:34:56;102356.75;;;-6.51;100.00
75036;BME280;64247;51.540;5.854;2022-12-18T07:36:57;102351.66;;;-6.53;100.00
75036;BME280;64247;51.540;5.854;2022-12-18T07:38:58;102345.56;;;-6.53;100.00
75036;BME280;64247;51.540;5.854;2022-12-18T07:41:04;102352.47;;;-6.52;100.00
75036;BME280;64247;51.540;5.854;2022-12-18T07:43:06;102344.53;;;-6.52;99.77
75036;BME280;64247;51.540;5.854;2022-12-18T07:45:07;102351.84;;;-6.54;99.98
75036;BME280;64247;51.540;5.854;2022-12-18T07:47:09;102340.25;;;-6.53;99.95
75036;BME280;64247;51.540;5.854;2022-12-18T07:49:10;102334.81;;;-6.52;100.00
75036;BME280;64247;51.540;5.854;2022-12-18T07:51:11;102329.97;;;-6.48;99.65
75036;BME280;64247;51.540;5.854;2022-12-18T07:53:12;102319.00;;;-6.45;99.84
75036;BME280;64247;51.540;5.854;2022-12-18T07:55:14;102317.81;;;-6.42;99.18
75036;BME280;64247;51.540;5.854;2022-12-18T07:57:16;102317.44;;;-6.39;99.47
75036;BME280;64247;51.540;5.854;2022-12-18T07:59:18;102308.94;;;-6.34;99.13
75036;BME280;64247;51.540;5.854;2022-12-18T08:01:19;102319.75;;;-6.29;99.03
75036;BME280;64247;51.540;5.854;2022-12-18T08:03:20;102308.59;;;-6.25;98.79
75036;BME280;64247;51.540;5.854;2022-12-18T08:05:20;102306.81;;;-6.17;98.66
75036;BME280;64247;51.540;5.854;2022-12-18T08:07:21;102303.81;;;-6.14;98.36
75036;BME280;64247;51.540;5.854;2022-12-18T08:09:22;102303.03;;;-6.08;98.18
75036;BME280;64247;51.540;5.854;2022-12-18T08:11:25;102306.53;;;-6.01;98.15
75036;BME280;64247;51.540;5.854;2022-12-18T08:13:29;102297.00;;;-5.95;97.69
75036;BME280;64247;51.540;5.854;2022-12-18T08:15:30;102301.50;;;-5.89;97.84
75036;BME280;64247;51.540;5.854;2022-12-18T08:17:30;102302.16;;;-5.80;97.34
75036;BME280;64247;51.540;5.854;2022-12-18T08:19:32;102306.50;;;-5.73;97.18
75036;BME280;64247;51.540;5.854;2022-12-18T08:21:33;102308.13;;;-5.65;97.10
75036;BME280;64247;51.540;5.854;2022-12-18T08:23:34;102305.56;;;-5.51;96.43
75036;BME280;64247;51.540;5.854;2022-12-18T08:25:35;102304.59;;;-5.44;96.20
75036;BME280;64247;51.540;5.854;2022-12-18T08:27:36;102305.03;;;-5.33;95.72
75036;BME280;64247;51.540;5.854;2022-12-18T08:29:37;102298.53;;;-5.24;95.54
75036;BME280;64247;51.540;5.854;2022-12-18T08:31:38;102304.72;;;-5.10;94.85
75036;BME280;64247;51.540;5.854;2022-12-18T08:33:40;102309.66;;;-4.87;93.93
75036;BME280;64247;51.540;5.854;2022-12-18T08:35:41;102312.53;;;-4.68;93.84
75036;BME280;64247;51.540;5.854;2022-12-18T08:37:42;102316.44;;;-4.51;92.70
75036;BME280;64247;51.540;5.854;2022-12-18T08:39:43;102308.50;;;-4.37;92.29
75036;BME280;64247;51.540;5.854;2022-12-18T08:41:44;102304.41;;;-4.26;91.29
75036;BME280;64247;51.540;5.854;2022-12-18T08:44:07;102311.13;;;-4.17;91.10
75036;BME280;64247;51.540;5.854;2022-12-18T08:46:30;102308.91;;;-4.07;90.41
75036;BME280;64247;51.540;5.854;2022-12-18T08:48:36;102307.25;;;-4.08;90.39
75036;BME280;64247;51.540;5.854;2022-12-18T08:50:36;102311.13;;;-4.04;90.36
75036;BME280;64247;51.540;5.854;2022-12-18T08:52:37;102316.03;;;-4.01;90.06
75036;BME280;64247;51.540;5.854;2022-12-18T08:54:38;102309.88;;;-4.01;90.20
75036;BME280;64247;51.540;5.854;2022-12-18T08:56:39;102308.25;;;-3.95;89.77
75036;BME280;64247;51.540;5.854;2022-12-18T08:58:40;102293.13;;;-3.88;89.58
75036;BME280;64247;51.540;5.854;2022-12-18T09:00:42;102281.28;;;-3.79;89.53
75036;BME280;64247;51.540;5.854;2022-12-18T09:02:43;102273.47;;;-3.60;88.81
75036;BME280;64247;51.540;5.854;2022-12-18T09:04:46;102269.22;;;-3.23;87.63
75036;BME280;64247;51.540;5.854;2022-12-18T09:06:49;102271.72;;;-2.96;87.26
75036;BME280;64247;51.540;5.854;2022-12-18T09:08:50;102282.50;;;-2.84;86.53
75036;BME280;64247;51.540;5.854;2022-12-18T09:10:51;102273.84;;;-2.79;85.63
75036;BME280;64247;51.540;5.854;2022-12-18T09:12:52;102274.22;;;-2.76;85.11
75036;BME280;64247;51.540;5.854;2022-12-18T09:14:53;102272.94;;;-2.66;85.07
75036;BME280;64247;51.540;5.854;2022-12-18T09:16:53;102269.66;;;-2.62;84.55
75036;BME280;64247;51.540;5.854;2022-12-18T09:18:55;102276.00;;;-2.63;84.44
75036;BME280;64247;51.540;5.854;2022-12-18T09:20:59;102273.41;;;-2.69;84.55
75036;BME280;64247;51.540;5.854;2022-12-18T09:23:00;102285.69;;;-2.75;83.91
75036;BME280;64247;51.540;5.854;2022-12-18T09:25:01;102273.28;;;-2.81;84.42
75036;BME280;64247;51.540;5.854;2022-12-18T09:27:02;102277.97;;;-2.83;84.46
75036;BME280;64247;51.540;5.854;2022-12-18T09:29:03;102280.63;;;-2.83;84.96
75036;BME280;64247;51.540;5.854;2022-12-18T09:31:07;102277.97;;;-2.83;84.88
75036;BME280;64247;51.540;5.854;2022-12-18T09:33:08;102285.72;;;-2.82;84.74
75036;BME280;64247;51.540;5.854;2022-12-18T09:35:09;102278.78;;;-2.83;84.72
75036;BME280;64247;51.540;5.854;2022-12-18T09:37:10;102284.09;;;-2.83;84.88
75036;BME280;64247;51.540;5.854;2022-12-18T09:39:11;102282.28;;;-2.82;85.75
75036;BME280;64247;51.540;5.854;2022-12-18T09:44:39;102287.97;;;-2.79;84.93
75036;BME280;64247;51.540;5.854;2022-12-18T09:46:48;102291.44;;;-2.78;85.09
75036;BME280;64247;51.540;5.854;2022-12-18T09:48:59;102299.78;;;-2.75;85.15
75036;BME280;64247;51.540;5.854;2022-12-18T09:53:44;102292.59;;;-2.67;84.57
75036;BME280;64247;51.540;5.854;2022-12-18T09:55:51;102292.97;;;-2.64;84.91
75036;BME280;64247;51.540;5.854;2022-12-18T09:58:06;102281.91;;;-2.61;84.51
75036;BME280;64247;51.540;5.854;2022-12-18T10:00:32;102274.09;;;-2.56;83.80
75036;BME280;64247;51.540;5.854;2022-12-18T10:02:33;102270.78;;;-2.51;83.87
75036;BME280;64247;51.540;5.854;2022-12-18T10:04:34;102259.28;;;-2.45;84.05
75036;BME280;64247;51.540;5.854;2022-12-18T10:07:03;102238.97;;;-2.39;84.13
75036;BME280;64247;51.540;5.854;2022-12-18T10:12:36;102249.47;;;-2.26;82.97
75036;BME280;64247;51.540;5.854;2022-12-18T10:15:24;102247.38;;;-2.17;82.12
75036;BME280;64247;51.540;5.854;2022-12-18T10:20:45;102243.31;;;-2.01;82.46
75036;BME280;64247;51.540;5.854;2022-12-18T10:23:15;102241.19;;;-1.92;81.69
75036;BME280;64247;51.540;5.854;2022-12-18T10:26:06;102244.13;;;-1.82;81.08
75036;BME280;64247;51.540;5.854;2022-12-18T10:28:14;102245.03;;;-1.69;80.75
75036;BME280;64247;51.540;5.854;2022-12-18T10:30:21;102229.13;;;-1.57;81.00
75036;BME280;64247;51.540;5.854;2022-12-18T10:32:26;102245.81;;;-1.50;80.99
75036;BME280;64247;51.540;5.854;2022-12-18T10:34:29;102248.75;;;-1.40;79.98
75036;BME280;64247;51.540;5.854;2022-12-18T10:36:30;102243.56;;;-1.35;79.45
75036;BME280;64247;51.540;5.854;2022-12-18T10:38:32;102234.31;;;-1.32;79.13
75036;BME280;64247;51.540;5.854;2022-12-18T10:43:40;102228.44;;;-1.22;78.64
75036;BME280;64247;51.540;5.854;2022-12-18T10:45:42;102229.47;;;-1.23;77.74
75036;BME280;64247;51.540;5.854;2022-12-18T10:47:59;102227.03;;;-1.25;78.09
75036;BME280;64247;51.540;5.854;2022-12-18T10:50:01;102221.47;;;-1.23;77.48
75036;BME280;64247;51.540;5.854;2022-12-18T10:52:18;102209.81;;;-1.10;77.36
75036;BME280;64247;51.540;5.854;2022-12-18T10:54:23;102212.75;;;-1.00;77.56
75036;BME280;64247;51.540;5.854;2022-12-18T10:56:27;102205.47;;;-0.93;77.21
75036;BME280;64247;51.540;5.854;2022-12-18T10:58:34;102201.28;;;-0.89;76.39
75036;BME280;64247;51.540;5.854;2022-12-18T11:00:36;102202.31;;;-0.90;76.10
75036;BME280;64247;51.540;5.854;2022-12-18T11:02:38;102195.34;;;-0.91;76.43
75036;BME280;64247;51.540;5.854;2022-12-18T11:04:51;102190.63;;;-0.89;76.18
75036;BME280;64247;51.540;5.854;2022-12-18T11:07:04;102186.31;;;-0.90;76.32
75036;BME280;64247;51.540;5.854;2022-12-18T11:09:20;102179.25;;;-0.96;76.51
75036;BME280;64247;51.540;5.854;2022-12-18T11:11:28;102171.94;;;-1.01;76.98
75036;BME280;64247;51.540;5.854;2022-12-18T11:13:30;102172.63;;;-1.05;76.77
75036;BME280;64247;51.540;5.854;2022-12-18T11:15:33;102159.19;;;-1.10;77.33
75036;BME280;64247;51.540;5.854;2022-12-18T11:17:35;102158.81;;;-1.14;77.01
75036;BME280;64247;51.540;5.854;2022-12-18T11:19:38;102152.56;;;-1.20;76.79
75036;BME280;64247;51.540;5.854;2022-12-18T11:21:41;102168.19;;;-1.23;76.95
75036;BME280;64247;51.540;5.854;2022-12-18T11:23:53;102175.13;;;-1.22;77.64
75036;BME280;64247;51.540;5.854;2022-12-18T11:25:57;102170.41;;;-1.20;77.28
75036;BME280;64247;51.540;5.854;2022-12-18T11:28:05;102150.91;;;-1.21;76.95
75036;BME280;64247;51.540;5.854;2022-12-18T11:30:33;102148.63;;;-1.17;76.84